createdAt,value
2018-03-15T00:01:06.033Z,3.63
2018-03-15T00:02:05.963Z,3.62
2018-03-15T00:03:58.755Z,3.62
2018-03-15T00:04:58.650Z,3.59
2018-03-15T00:06:51.430Z,3.56
2018-03-15T00:07:51.339Z,3.59
2018-03-15T00:09:44.097Z,3.63
2018-03-15T00:10:44.024Z,3.60
2018-03-15T00:12:36.848Z,3.57
2018-03-15T00:13:36.714Z,3.62
2018-03-15T00:15:29.471Z,3.60
2018-03-15T00:16:29.401Z,3.70
2018-03-15T00:18:22.190Z,3.60
2018-03-15T00:19:22.108Z,3.62
2018-03-15T00:21:14.858Z,3.56
2018-03-15T00:22:14.799Z,3.52
2018-03-15T00:24:07.566Z,3.57
2018-03-15T00:25:07.489Z,3.54
2018-03-15T00:27:00.264Z,3.52
2018-03-15T00:28:00.191Z,3.64
2018-03-15T00:29:52.981Z,3.60
2018-03-15T00:30:52.871Z,3.63
2018-03-15T00:32:45.642Z,3.62
2018-03-15T00:33:45.579Z,3.62
2018-03-15T00:35:38.366Z,3.63
2018-03-15T00:36:38.288Z,3.57
2018-03-15T00:38:31.051Z,3.60
2018-03-15T00:39:30.980Z,3.63
2018-03-15T00:41:23.751Z,3.59
2018-03-15T00:42:23.671Z,3.64
2018-03-15T00:44:16.569Z,3.59
2018-03-15T00:45:16.381Z,3.57
2018-03-15T00:47:09.143Z,3.44
2018-03-15T00:48:09.062Z,3.44
2018-03-15T00:50:01.856Z,3.46
2018-03-15T00:51:01.778Z,3.54
2018-03-15T00:52:54.540Z,3.52
2018-03-15T00:53:54.466Z,3.54
2018-03-15T00:55:47.250Z,3.57
2018-03-15T00:56:47.166Z,3.52
2018-03-15T00:58:39.913Z,3.42
2018-03-15T00:59:39.839Z,3.50
2018-03-15T01:01:32.660Z,3.46
2018-03-15T01:02:32.576Z,3.46
2018-03-15T01:04:25.346Z,3.59
2018-03-15T01:05:25.273Z,3.52
2018-03-15T01:07:18.038Z,3.54
2018-03-15T01:08:17.963Z,3.50
2018-03-15T01:10:10.726Z,3.45
2018-03-15T01:11:10.654Z,3.45
2018-03-15T01:13:03.458Z,3.49
2018-03-15T01:14:03.359Z,3.56
2018-03-15T01:15:56.144Z,3.52
2018-03-15T01:16:56.052Z,3.49
2018-03-15T01:18:48.793Z,3.45
2018-03-15T01:19:48.725Z,3.45
2018-03-15T01:21:41.529Z,3.35
2018-03-15T01:22:41.412Z,3.46
2018-03-15T01:24:34.174Z,3.44
2018-03-15T01:25:34.106Z,3.30
2018-03-15T01:27:26.875Z,3.34
2018-03-15T01:28:26.788Z,3.46
2018-03-15T01:30:19.553Z,3.46
2018-03-15T01:31:19.485Z,3.37
2018-03-15T01:33:12.260Z,3.31
2018-03-15T01:34:12.168Z,3.44
2018-03-15T01:36:04.920Z,3.46
2018-03-15T01:37:04.870Z,3.42
2018-03-15T01:38:57.613Z,3.50
2018-03-15T01:39:57.540Z,3.34
2018-03-15T01:41:50.291Z,3.41
2018-03-15T01:42:50.216Z,3.44
2018-03-15T01:44:42.988Z,3.44
2018-03-15T01:45:42.913Z,3.54
2018-03-15T01:47:35.659Z,3.59
2018-03-15T01:48:35.592Z,3.56
2018-03-15T01:50:28.358Z,3.46
2018-03-15T01:51:28.273Z,3.50
2018-03-15T01:53:21.076Z,3.49
2018-03-15T01:54:20.972Z,3.59
2018-03-15T01:56:13.720Z,3.60
2018-03-15T01:57:13.656Z,3.54
2018-03-15T01:59:06.411Z,3.63
2018-03-15T02:00:06.332Z,3.60
2018-03-15T02:01:59.097Z,3.56
2018-03-15T02:02:59.028Z,3.52
2018-03-15T02:04:51.790Z,3.60
2018-03-15T02:05:51.705Z,3.57
2018-03-15T02:07:44.464Z,3.52
2018-03-15T02:08:44.395Z,3.46
2018-03-15T02:10:37.166Z,3.45
2018-03-15T02:11:37.084Z,3.60
2018-03-15T02:13:29.865Z,3.54
2018-03-15T02:14:29.769Z,3.52
2018-03-15T02:16:22.531Z,3.49
2018-03-15T02:17:22.467Z,3.52
2018-03-15T02:19:15.215Z,3.52
2018-03-15T02:20:15.146Z,3.52
2018-03-15T02:22:07.919Z,3.53
2018-03-15T02:23:07.820Z,3.63
2018-03-15T02:25:00.584Z,3.53
2018-03-15T02:26:00.510Z,3.52
2018-03-15T02:27:53.276Z,3.52
2018-03-15T02:28:53.199Z,3.46
2018-03-15T02:30:46.008Z,3.53
2018-03-15T02:31:45.891Z,3.53
2018-03-15T02:33:38.657Z,3.57
2018-03-15T02:34:38.589Z,3.53
2018-03-15T02:36:31.368Z,3.57
2018-03-15T02:37:31.282Z,3.57
2018-03-15T02:39:24.036Z,3.53
2018-03-15T02:40:23.966Z,3.64
2018-03-15T02:42:16.744Z,3.63
2018-03-15T02:43:16.646Z,3.56
2018-03-15T02:45:09.427Z,3.50
2018-03-15T02:46:09.361Z,3.60
2018-03-15T02:48:02.124Z,3.60
2018-03-15T02:49:02.044Z,3.53
2018-03-15T02:50:54.805Z,3.54
2018-03-15T02:51:54.741Z,3.54
2018-03-15T02:53:47.493Z,3.50
2018-03-15T02:54:47.419Z,3.57
2018-03-15T02:56:40.186Z,3.50
2018-03-15T02:57:40.104Z,3.46
2018-03-15T02:59:32.878Z,3.57
2018-03-15T03:00:32.887Z,3.54
2018-03-15T03:02:25.552Z,3.52
2018-03-15T03:03:25.481Z,3.56
2018-03-15T03:05:18.245Z,3.63
2018-03-15T03:06:18.167Z,3.56
2018-03-15T03:08:10.925Z,3.64
2018-03-15T03:09:10.848Z,3.63
2018-03-15T03:11:03.593Z,3.54
2018-03-15T03:12:03.531Z,3.53
2018-03-15T03:13:56.316Z,3.57
2018-03-15T03:14:56.203Z,3.56
2018-03-15T03:16:48.958Z,3.56
2018-03-15T03:17:48.891Z,3.54
2018-03-15T03:19:41.647Z,3.54
2018-03-15T03:20:41.567Z,3.52
2018-03-15T03:22:34.356Z,3.45
2018-03-15T03:23:34.284Z,3.46
2018-03-15T03:25:27.124Z,3.50
2018-03-15T03:26:26.959Z,3.46
2018-03-15T03:28:19.727Z,3.45
2018-03-15T03:29:19.649Z,3.54
2018-03-15T03:31:12.547Z,3.50
2018-03-15T03:32:12.516Z,3.44
2018-03-15T03:34:05.248Z,3.56
2018-03-15T03:35:05.148Z,3.41
2018-03-15T03:36:57.914Z,3.46
2018-03-15T03:37:57.830Z,3.50
2018-03-15T03:39:50.594Z,3.46
2018-03-15T03:40:50.513Z,3.45
2018-03-15T03:42:43.263Z,3.46
2018-03-15T03:43:43.196Z,3.41
2018-03-15T03:45:35.962Z,3.50
2018-03-15T03:46:35.880Z,3.56
2018-03-15T03:48:28.637Z,3.46
2018-03-15T03:49:28.579Z,3.46
2018-03-15T03:51:21.341Z,3.49
2018-03-15T03:52:21.256Z,3.46
2018-03-15T03:54:14.018Z,3.53
2018-03-15T03:55:13.952Z,3.46
2018-03-15T03:57:06.723Z,3.46
2018-03-15T03:58:06.638Z,3.44
2018-03-15T03:59:59.428Z,3.46
2018-03-15T04:00:59.335Z,3.49
2018-03-15T04:02:52.091Z,3.44
2018-03-15T04:03:52.010Z,3.46
2018-03-15T04:05:44.778Z,3.50
2018-03-15T04:06:44.701Z,3.50
2018-03-15T04:08:37.449Z,3.45
2018-03-15T04:09:37.387Z,3.56
2018-03-15T04:11:30.146Z,3.49
2018-03-15T04:12:30.070Z,3.46
2018-03-15T04:14:22.822Z,3.46
2018-03-15T04:15:22.757Z,3.45
2018-03-15T04:17:15.509Z,3.53
2018-03-15T04:18:15.424Z,3.52
2018-03-15T04:20:08.187Z,3.52
2018-03-15T04:21:08.122Z,3.53
2018-03-15T04:23:00.878Z,3.46
2018-03-15T04:24:00.812Z,3.45
2018-03-15T04:25:53.561Z,3.49
2018-03-15T04:26:53.495Z,3.49
2018-03-15T04:28:46.278Z,3.44
2018-03-15T04:29:46.199Z,3.49
2018-03-15T04:31:38.942Z,3.49
2018-03-15T04:32:38.872Z,3.53
2018-03-15T04:34:31.631Z,3.50
2018-03-15T04:35:31.552Z,3.53
2018-03-15T04:37:24.324Z,3.46
2018-03-15T04:38:24.252Z,3.44
2018-03-15T04:40:17.002Z,3.52
2018-03-15T04:41:16.924Z,3.53
2018-03-15T04:43:09.692Z,3.56
2018-03-15T04:44:09.687Z,3.46
2018-03-15T04:46:02.368Z,3.49
2018-03-15T04:47:02.289Z,3.45
2018-03-15T04:48:55.060Z,3.45
2018-03-15T04:49:55.015Z,3.46
2018-03-15T04:51:47.729Z,3.52
2018-03-15T04:52:47.654Z,3.52
2018-03-15T04:54:40.446Z,3.50
2018-03-15T04:55:40.351Z,3.50
2018-03-15T04:57:33.100Z,3.52
2018-03-15T04:58:33.060Z,3.46
2018-03-15T05:00:25.816Z,3.41
2018-03-15T05:01:25.717Z,3.49
2018-03-15T05:03:18.478Z,3.37
2018-03-15T05:04:18.413Z,3.41
2018-03-15T05:06:11.182Z,3.39
2018-03-15T05:07:11.122Z,3.37
2018-03-15T05:09:03.869Z,3.37
2018-03-15T05:10:03.780Z,3.33
2018-03-15T05:11:56.571Z,3.53
2018-03-15T05:12:56.504Z,3.45
2018-03-15T05:14:49.328Z,3.45
2018-03-15T05:15:49.180Z,3.42
2018-03-15T05:17:41.928Z,3.45
2018-03-15T05:18:41.853Z,3.45
2018-03-15T05:20:34.683Z,3.44
2018-03-15T05:21:34.550Z,3.44
2018-03-15T05:23:27.301Z,3.49
2018-03-15T05:24:27.228Z,3.28
2018-03-15T05:26:19.989Z,3.34
2018-03-15T05:27:19.912Z,3.33
2018-03-15T05:29:12.699Z,3.30
2018-03-15T05:30:12.616Z,3.33
2018-03-15T05:32:05.354Z,3.31
2018-03-15T05:33:05.274Z,3.30
2018-03-15T05:34:58.867Z,3.28
2018-03-15T05:35:58.798Z,3.33
2018-03-15T05:37:51.612Z,3.31
2018-03-15T05:38:51.478Z,3.33
2018-03-15T05:40:44.256Z,3.25
2018-03-15T05:41:44.168Z,3.28
2018-03-15T05:43:36.915Z,3.31
2018-03-15T05:44:36.844Z,3.28
2018-03-15T05:46:29.664Z,3.25
2018-03-15T05:47:29.565Z,3.35
2018-03-15T05:49:22.330Z,3.35
2018-03-15T05:50:22.262Z,3.28
2018-03-15T05:52:15.059Z,3.19
2018-03-15T05:53:14.985Z,3.19
2018-03-15T05:55:07.758Z,3.20
2018-03-15T05:56:07.666Z,3.19
2018-03-15T05:58:00.434Z,3.22
2018-03-15T05:59:00.356Z,3.16
2018-03-15T06:00:53.199Z,3.15
2018-03-15T06:01:53.069Z,3.25
2018-03-15T06:03:45.843Z,3.25
2018-03-15T06:04:45.753Z,3.19
2018-03-15T06:06:38.517Z,3.23
2018-03-15T06:07:38.458Z,3.20
2018-03-15T06:09:31.345Z,3.25
2018-03-15T06:10:31.222Z,3.17
2018-03-15T06:12:23.991Z,3.16
2018-03-15T06:13:23.932Z,3.23
2018-03-15T06:15:16.675Z,3.15
2018-03-15T06:16:16.608Z,3.22
2018-03-15T06:18:09.378Z,3.16
2018-03-15T06:19:09.302Z,3.19
2018-03-15T06:21:02.035Z,3.20
2018-03-15T06:22:01.963Z,3.16
2018-03-15T06:23:54.723Z,3.16
2018-03-15T06:24:54.653Z,3.16
2018-03-15T06:26:47.422Z,3.17
2018-03-15T06:27:47.426Z,3.19
2018-03-15T06:29:40.111Z,3.10
2018-03-15T06:30:40.031Z,3.12
2018-03-15T06:32:32.777Z,3.19
2018-03-15T06:33:32.713Z,3.19
2018-03-15T06:35:25.488Z,3.13
2018-03-15T06:36:25.391Z,3.13
2018-03-15T06:38:18.210Z,3.01
2018-03-15T06:39:18.077Z,2.97
2018-03-15T06:41:10.943Z,3.01
2018-03-15T06:42:10.774Z,3.04
2018-03-15T06:44:03.541Z,3.01
2018-03-15T06:45:03.474Z,3.01
2018-03-15T06:46:56.247Z,2.98
2018-03-15T06:47:56.169Z,3.01
2018-03-15T06:49:48.932Z,3.05
2018-03-15T06:50:48.852Z,2.99
2018-03-15T06:52:41.639Z,3.04
2018-03-15T06:53:41.578Z,2.98
2018-03-15T06:55:34.371Z,3.04
2018-03-15T06:56:34.288Z,3.08
2018-03-15T06:58:27.074Z,3.04
2018-03-15T06:59:26.999Z,3.10
2018-03-15T07:01:19.805Z,3.13
2018-03-15T07:02:19.722Z,3.08
2018-03-15T07:04:12.489Z,3.15
2018-03-15T07:05:12.404Z,3.17
2018-03-15T07:07:05.199Z,3.23
2018-03-15T07:08:05.146Z,3.15
2018-03-15T07:09:57.916Z,3.15
2018-03-15T07:10:57.846Z,3.15
2018-03-15T07:12:50.632Z,3.12
2018-03-15T07:13:50.551Z,3.19
2018-03-15T07:15:43.371Z,3.15
2018-03-15T07:16:43.268Z,3.13
2018-03-15T07:18:36.016Z,3.08
2018-03-15T07:19:35.947Z,3.12
2018-03-15T07:21:28.726Z,3.22
2018-03-15T07:22:28.646Z,3.20
2018-03-15T07:24:21.400Z,3.12
2018-03-15T07:25:21.327Z,3.25
2018-03-15T07:27:14.119Z,3.19
2018-03-15T07:28:14.042Z,3.28
2018-03-15T07:30:06.812Z,3.26
2018-03-15T07:31:06.739Z,3.39
2018-03-15T07:32:59.518Z,3.31
2018-03-15T07:33:59.435Z,3.34
2018-03-15T07:35:52.203Z,3.26
2018-03-15T07:36:52.140Z,3.20
2018-03-15T07:38:44.913Z,3.26
2018-03-15T07:39:44.829Z,3.22
2018-03-15T07:41:37.625Z,3.23
2018-03-15T07:42:37.522Z,3.22
2018-03-15T07:44:30.368Z,3.19
2018-03-15T07:45:30.244Z,3.28
2018-03-15T07:47:23.016Z,3.22
2018-03-15T07:48:22.939Z,3.20
2018-03-15T07:50:15.692Z,3.22
2018-03-15T07:51:15.628Z,3.22
2018-03-15T07:53:08.381Z,3.25
2018-03-15T07:54:08.306Z,3.25
2018-03-15T07:56:01.102Z,3.10
2018-03-15T07:57:00.982Z,3.17
2018-03-15T07:58:53.757Z,3.22
2018-03-15T07:59:53.669Z,3.22
2018-03-15T08:01:46.433Z,3.19
2018-03-15T08:02:46.352Z,3.19
2018-03-15T08:04:39.145Z,3.07
2018-03-15T08:05:39.120Z,3.07
2018-03-15T08:07:31.778Z,3.19
2018-03-15T08:08:31.709Z,3.25
2018-03-15T08:10:24.610Z,3.28
2018-03-15T08:11:24.391Z,3.25
2018-03-15T08:13:17.184Z,3.22
2018-03-15T08:14:17.139Z,3.20
2018-03-15T08:16:09.872Z,3.26
2018-03-15T08:17:09.781Z,3.23
2018-03-15T08:19:02.575Z,3.31
2018-03-15T08:20:02.536Z,3.31
2018-03-15T08:21:55.249Z,3.22
2018-03-15T08:22:55.182Z,3.20
2018-03-15T08:24:47.965Z,3.25
2018-03-15T08:25:47.875Z,3.26
2018-03-15T08:27:40.642Z,3.13
2018-03-15T08:28:40.555Z,3.17
2018-03-15T08:30:33.497Z,3.16
2018-03-15T08:31:33.244Z,3.17
2018-03-15T08:33:25.993Z,3.22
2018-03-15T08:34:25.923Z,3.17
2018-03-15T08:36:18.788Z,3.19
2018-03-15T08:37:18.709Z,3.19
2018-03-15T08:39:11.451Z,3.19
2018-03-15T08:40:11.397Z,3.33
2018-03-15T08:42:04.188Z,3.25
2018-03-15T08:43:04.096Z,3.34
2018-03-15T08:44:56.869Z,3.34
2018-03-15T08:45:56.800Z,3.39
2018-03-15T08:47:49.559Z,3.44
2018-03-15T08:48:49.472Z,3.28
2018-03-15T08:50:42.299Z,3.57
2018-03-15T08:51:42.159Z,3.53
2018-03-15T08:53:34.945Z,3.64
2018-03-15T08:54:34.839Z,3.62
2018-03-15T08:56:27.595Z,3.56
2018-03-15T08:57:27.511Z,3.56
2018-03-15T08:59:20.266Z,3.62
2018-03-15T09:00:20.280Z,3.52
2018-03-15T09:02:13.030Z,3.60
2018-03-15T09:03:12.887Z,3.54
2018-03-15T09:05:05.624Z,3.56
2018-03-15T09:06:05.557Z,3.54
2018-03-15T09:07:58.406Z,3.70
2018-03-15T09:08:58.307Z,3.63
2018-03-15T09:10:51.225Z,3.63
2018-03-15T09:11:51.027Z,3.63
2018-03-15T09:13:43.765Z,3.68
2018-03-15T09:14:43.710Z,3.63
2018-03-15T09:16:36.481Z,3.68
2018-03-15T09:17:36.378Z,3.78
2018-03-15T09:19:29.129Z,3.81
2018-03-15T09:20:29.178Z,3.86
2018-03-15T09:22:21.832Z,3.84
2018-03-15T09:23:21.749Z,3.93
2018-03-15T09:25:14.510Z,3.92
2018-03-15T09:26:14.445Z,3.82
2018-03-15T09:28:07.238Z,3.86
2018-03-15T09:29:07.164Z,3.92
2018-03-15T09:30:59.913Z,3.93
2018-03-15T09:31:59.852Z,3.93
2018-03-15T09:33:52.625Z,4.06
2018-03-15T09:34:52.550Z,4.02
2018-03-15T09:36:45.298Z,4.04
2018-03-15T09:37:45.238Z,4.06
2018-03-15T09:39:38.042Z,4.07
2018-03-15T09:40:37.977Z,3.92
2018-03-15T09:42:30.721Z,4.11
2018-03-15T09:43:30.650Z,4.08
2018-03-15T09:45:23.408Z,4.04
2018-03-15T09:46:23.342Z,4.08
2018-03-15T09:48:16.115Z,4.14
2018-03-15T09:49:16.022Z,4.06
2018-03-15T09:51:08.848Z,4.14
2018-03-15T09:52:08.759Z,4.28
2018-03-15T09:54:01.536Z,4.24
2018-03-15T09:55:01.444Z,4.25
2018-03-15T09:56:54.200Z,4.17
2018-03-15T09:57:54.136Z,4.36
2018-03-15T09:59:46.905Z,4.24
2018-03-15T10:00:46.819Z,4.29
2018-03-15T10:02:39.573Z,4.42
2018-03-15T10:03:39.507Z,4.47
2018-03-15T10:05:32.272Z,4.47
2018-03-15T10:06:32.190Z,4.42
2018-03-15T10:08:24.997Z,4.39
2018-03-15T10:09:24.932Z,4.42
2018-03-15T10:11:17.697Z,4.32
2018-03-15T10:12:17.624Z,4.39
2018-03-15T10:14:10.409Z,4.29
2018-03-15T10:15:10.321Z,4.34
2018-03-15T10:17:03.126Z,4.44
2018-03-15T10:18:03.075Z,4.47
2018-03-15T10:19:55.824Z,4.18
2018-03-15T10:20:55.781Z,4.11
2018-03-15T10:22:48.566Z,4.25
2018-03-15T10:23:48.507Z,4.31
2018-03-15T10:25:41.283Z,4.35
2018-03-15T10:26:41.187Z,4.43
2018-03-15T10:28:33.999Z,4.35
2018-03-15T10:29:33.912Z,4.38
2018-03-15T10:31:26.680Z,4.31
2018-03-15T10:32:26.603Z,4.35
2018-03-15T10:34:19.446Z,4.32
2018-03-15T10:35:19.375Z,4.35
2018-03-15T10:37:12.154Z,4.44
2018-03-15T10:38:12.089Z,4.47
2018-03-15T10:40:04.845Z,4.47
2018-03-15T10:41:04.765Z,4.54
2018-03-15T10:42:57.624Z,4.68
2018-03-15T10:43:57.562Z,4.75
2018-03-15T10:45:50.408Z,4.91
2018-03-15T10:46:50.301Z,4.94
2018-03-15T10:48:43.214Z,4.86
2018-03-15T10:49:43.144Z,4.71
2018-03-15T10:51:35.918Z,4.56
2018-03-15T10:52:35.833Z,4.65
2018-03-15T10:54:28.614Z,4.65
2018-03-15T10:55:28.555Z,4.74
2018-03-15T10:57:21.372Z,4.75
2018-03-15T10:58:21.347Z,4.59
2018-03-15T11:00:14.114Z,4.69
2018-03-15T11:01:14.022Z,4.69
2018-03-15T11:03:06.849Z,4.75
2018-03-15T11:04:06.748Z,4.61
2018-03-15T11:05:59.567Z,4.59
2018-03-15T11:06:59.481Z,4.67
2018-03-15T11:08:52.325Z,4.54
2018-03-15T11:09:52.263Z,4.54
2018-03-15T11:11:45.047Z,4.72
2018-03-15T11:12:44.936Z,4.75
2018-03-15T11:14:37.739Z,4.65
2018-03-15T11:15:37.664Z,4.59
2018-03-15T11:17:30.442Z,4.74
2018-03-15T11:18:30.353Z,4.65
2018-03-15T11:20:23.336Z,4.90
2018-03-15T11:21:23.199Z,4.90
2018-03-15T11:23:16.014Z,5.08
2018-03-15T11:24:15.884Z,5.17
2018-03-15T11:26:08.742Z,5.22
2018-03-15T11:27:08.652Z,5.19
2018-03-15T11:29:01.375Z,5.26
2018-03-15T11:30:01.328Z,5.30
2018-03-15T11:31:54.146Z,5.35
2018-03-15T11:32:54.101Z,5.45
2018-03-15T11:34:46.932Z,5.37
2018-03-15T11:35:46.871Z,5.24
2018-03-15T11:37:39.719Z,5.29
2018-03-15T11:38:39.582Z,5.41
2018-03-15T11:40:32.420Z,5.35
2018-03-15T11:41:32.289Z,5.32
2018-03-15T11:43:25.062Z,5.45
2018-03-15T11:44:25.027Z,5.44
2018-03-15T11:46:17.918Z,5.40
2018-03-15T11:47:17.678Z,5.30
2018-03-15T11:49:10.463Z,5.27
2018-03-15T11:50:10.357Z,5.20
2018-03-15T11:52:03.131Z,5.48
2018-03-15T11:53:03.069Z,5.40
2018-03-15T11:54:55.830Z,5.51
2018-03-15T11:55:55.755Z,5.59
2018-03-15T11:57:48.562Z,5.26
2018-03-15T11:58:48.488Z,5.41
2018-03-15T12:00:41.303Z,5.27
2018-03-15T12:01:41.185Z,5.20
2018-03-15T12:03:34.021Z,5.42
2018-03-15T12:04:33.910Z,5.42
2018-03-15T12:06:26.704Z,5.35
2018-03-15T12:07:26.624Z,5.42
2018-03-15T12:09:19.503Z,5.62
2018-03-15T12:10:19.411Z,5.47
2018-03-15T12:12:12.245Z,5.44
2018-03-15T12:13:12.138Z,5.40
2018-03-15T12:15:04.958Z,5.56
2018-03-15T12:16:04.879Z,5.41
2018-03-15T12:17:57.733Z,5.41
2018-03-15T12:18:57.693Z,5.42
2018-03-15T12:20:50.606Z,5.58
2018-03-15T12:21:50.380Z,5.52
2018-03-15T12:23:43.145Z,5.77
2018-03-15T12:24:43.069Z,5.80
2018-03-15T12:26:35.895Z,5.78
2018-03-15T12:27:35.771Z,5.78
2018-03-15T12:29:28.600Z,5.70
2018-03-15T12:30:28.548Z,5.83
2018-03-15T12:32:21.322Z,5.73
2018-03-15T12:33:21.291Z,5.77
2018-03-15T12:35:14.073Z,5.65
2018-03-15T12:36:13.995Z,5.45
2018-03-15T12:38:06.762Z,5.41
2018-03-15T12:39:06.682Z,5.49
2018-03-15T12:40:59.466Z,5.37
2018-03-15T12:41:59.387Z,5.41
2018-03-15T12:43:52.171Z,5.52
2018-03-15T12:44:52.098Z,5.60
2018-03-15T12:46:44.941Z,5.73
2018-03-15T12:47:44.862Z,5.74
2018-03-15T12:49:37.681Z,5.88
2018-03-15T12:50:37.589Z,5.93
2018-03-15T12:52:30.468Z,5.73
2018-03-15T12:53:30.357Z,5.80
2018-03-15T12:55:23.203Z,5.87
2018-03-15T12:56:23.088Z,5.80
2018-03-15T12:58:15.907Z,5.92
2018-03-15T12:59:15.853Z,5.98
2018-03-15T13:01:08.628Z,6.06
2018-03-15T13:02:08.546Z,6.02
2018-03-15T13:04:01.321Z,5.75
2018-03-15T13:05:01.271Z,5.77
2018-03-15T13:06:54.174Z,5.80
2018-03-15T13:07:54.122Z,5.92
2018-03-15T13:09:46.812Z,5.75
2018-03-15T13:10:46.732Z,5.63
2018-03-15T13:12:39.574Z,5.62
2018-03-15T13:13:39.502Z,5.66
2018-03-15T13:15:32.527Z,5.69
2018-03-15T13:16:32.400Z,5.63
2018-03-15T13:18:25.168Z,5.56
2018-03-15T13:19:25.095Z,5.44
2018-03-15T13:21:17.925Z,5.35
2018-03-15T13:22:17.865Z,5.38
2018-03-15T13:24:10.846Z,5.29
2018-03-15T13:25:10.726Z,5.27
2018-03-15T13:27:03.614Z,5.38
2018-03-15T13:28:03.521Z,5.41
2018-03-15T13:29:56.320Z,5.40
2018-03-15T13:30:56.255Z,5.48
2018-03-15T13:32:49.142Z,5.45
2018-03-15T13:33:49.107Z,5.37
2018-03-15T13:35:41.936Z,5.37
2018-03-15T13:36:41.838Z,5.29
2018-03-15T13:38:34.671Z,5.35
2018-03-15T13:39:34.558Z,5.27
2018-03-15T13:41:27.344Z,5.26
2018-03-15T13:42:27.303Z,5.41
2018-03-15T13:44:20.212Z,5.30
2018-03-15T13:45:20.112Z,5.33
2018-03-15T13:47:12.934Z,5.19
2018-03-15T13:48:12.835Z,5.20
2018-03-15T13:50:05.723Z,5.26
2018-03-15T13:51:05.687Z,5.35
2018-03-15T13:52:58.475Z,5.19
2018-03-15T13:53:58.380Z,5.12
2018-03-15T13:55:51.157Z,5.12
2018-03-15T13:56:51.110Z,5.23
2018-03-15T13:58:43.968Z,5.22
2018-03-15T13:59:43.798Z,5.26
2018-03-15T14:01:36.903Z,5.38
2018-03-15T14:02:36.783Z,5.29
2018-03-15T14:04:29.586Z,5.33
2018-03-15T14:05:29.526Z,5.38
2018-03-15T14:07:22.371Z,5.44
2018-03-15T14:08:22.302Z,5.41
2018-03-15T14:10:15.187Z,5.41
2018-03-15T14:11:15.027Z,5.41
2018-03-15T14:13:08.846Z,5.44
2018-03-15T14:14:08.826Z,5.40
2018-03-15T14:16:01.691Z,5.47
2018-03-15T14:17:01.502Z,5.56
2018-03-15T14:18:54.444Z,5.70
2018-03-15T14:19:54.187Z,5.66
2018-03-15T14:21:47.217Z,5.73
2018-03-15T14:22:47.152Z,5.74
2018-03-15T14:24:40.033Z,5.78
2018-03-15T14:25:39.862Z,5.87
2018-03-15T14:27:32.760Z,5.98
2018-03-15T14:28:32.604Z,5.99
2018-03-15T14:30:25.385Z,5.92
2018-03-15T14:31:25.308Z,5.85
2018-03-15T14:33:18.261Z,5.92
2018-03-15T14:34:18.212Z,6.02
2018-03-15T14:36:11.042Z,6.10
2018-03-15T14:37:10.960Z,6.21
2018-03-15T14:39:03.712Z,6.16
2018-03-15T14:40:03.717Z,6.20
2018-03-15T14:41:56.629Z,6.13
2018-03-15T14:42:56.506Z,6.13
2018-03-15T14:44:49.299Z,5.98
2018-03-15T14:45:49.198Z,5.93
2018-03-15T14:47:42.024Z,5.87
2018-03-15T14:48:41.988Z,5.88
2018-03-15T14:50:34.893Z,5.92
2018-03-15T14:51:34.729Z,5.88
2018-03-15T14:53:27.537Z,5.96
2018-03-15T14:54:27.424Z,5.92
2018-03-15T14:56:20.239Z,5.90
2018-03-15T14:57:20.132Z,5.98
2018-03-15T14:59:12.958Z,5.95
2018-03-15T15:00:12.915Z,5.96
2018-03-15T15:02:05.776Z,5.93
2018-03-15T15:03:05.711Z,5.92
2018-03-15T15:04:58.496Z,6.02
2018-03-15T15:05:58.418Z,5.99
2018-03-15T15:07:51.222Z,5.83
2018-03-15T15:08:51.284Z,5.88
2018-03-15T15:10:43.969Z,5.84
2018-03-15T15:11:43.865Z,5.92
2018-03-15T15:13:36.631Z,5.81
2018-03-15T15:14:36.564Z,5.75
2018-03-15T15:16:29.400Z,5.75
2018-03-15T15:17:29.305Z,5.78
2018-03-15T15:19:22.085Z,5.74
2018-03-15T15:20:21.987Z,5.75
2018-03-15T15:22:14.773Z,5.77
2018-03-15T15:23:14.712Z,5.70
2018-03-15T15:25:07.555Z,5.60
2018-03-15T15:26:07.449Z,5.67
2018-03-15T15:28:00.372Z,5.60
2018-03-15T15:29:00.387Z,5.52
2018-03-15T15:30:53.117Z,5.56
2018-03-15T15:31:53.035Z,5.60
2018-03-15T15:33:45.797Z,5.55
2018-03-15T15:34:45.721Z,5.56
2018-03-15T15:36:38.531Z,5.51
2018-03-15T15:37:38.417Z,5.44
2018-03-15T15:39:31.268Z,5.45
2018-03-15T15:40:31.090Z,5.41
2018-03-15T15:42:23.977Z,5.48
2018-03-15T15:43:23.881Z,5.48
2018-03-15T15:45:16.710Z,5.48
2018-03-15T15:46:16.574Z,5.40
2018-03-15T15:48:09.412Z,5.55
2018-03-15T15:49:09.310Z,5.55
2018-03-15T15:51:02.111Z,5.44
2018-03-15T15:52:02.026Z,5.47
2018-03-15T15:53:54.828Z,5.38
2018-03-15T15:54:54.762Z,5.45
2018-03-15T15:56:47.551Z,5.37
2018-03-15T15:57:47.450Z,5.37
2018-03-15T15:59:40.257Z,5.38
2018-03-15T16:00:40.154Z,5.40
2018-03-15T16:02:33.024Z,5.44
2018-03-15T16:03:32.915Z,5.45
2018-03-15T16:05:25.728Z,5.45
2018-03-15T16:06:25.631Z,5.26
2018-03-15T16:08:18.429Z,5.35
2018-03-15T16:09:18.508Z,5.40
2018-03-15T16:11:11.093Z,5.33
2018-03-15T16:12:11.027Z,5.27
2018-03-15T16:14:03.767Z,5.38
2018-03-15T16:15:03.689Z,5.30
2018-03-15T16:16:56.466Z,5.20
2018-03-15T16:17:56.591Z,5.24
2018-03-15T16:19:49.288Z,5.22
2018-03-15T16:20:49.219Z,5.09
2018-03-15T16:22:41.940Z,5.14
2018-03-15T16:23:41.852Z,5.15
2018-03-15T16:25:34.676Z,5.11
2018-03-15T16:26:34.612Z,5.05
2018-03-15T16:28:27.471Z,5.06
2018-03-15T16:29:27.312Z,5.06
2018-03-15T16:31:20.104Z,5.15
2018-03-15T16:32:20.014Z,5.15
2018-03-15T16:34:12.885Z,5.08
2018-03-15T16:35:12.696Z,5.08
2018-03-15T16:37:05.579Z,5.02
2018-03-15T16:38:05.594Z,5.04
2018-03-15T16:39:58.288Z,5.06
2018-03-15T16:40:58.202Z,4.97
2018-03-15T16:42:51.047Z,4.96
2018-03-15T16:43:50.981Z,4.94
2018-03-15T16:45:43.813Z,4.94
2018-03-15T16:46:43.792Z,5.01
2018-03-15T16:48:36.627Z,4.94
2018-03-15T16:49:36.508Z,4.94
2018-03-15T16:51:29.498Z,4.90
2018-03-15T16:52:29.424Z,4.87
2018-03-15T16:54:22.274Z,4.84
2018-03-15T16:55:22.181Z,4.72
2018-03-15T16:57:15.013Z,4.75
2018-03-15T16:58:14.947Z,4.79
2018-03-15T17:00:07.944Z,4.80
2018-03-15T17:01:07.812Z,4.72
2018-03-15T17:03:00.841Z,4.67
2018-03-15T17:04:00.495Z,4.59
2018-03-15T17:05:53.354Z,4.65
2018-03-15T17:06:53.249Z,4.54
2018-03-15T17:08:46.119Z,4.53
2018-03-15T17:09:46.082Z,4.56
2018-03-15T17:11:38.832Z,4.47
2018-03-15T17:12:38.751Z,4.50
2018-03-15T17:14:31.620Z,4.51
2018-03-15T17:15:31.464Z,4.51
2018-03-15T17:17:24.214Z,4.43
2018-03-15T17:18:24.149Z,4.49
2018-03-15T17:20:16.946Z,4.44
2018-03-15T17:21:16.867Z,4.42
2018-03-15T17:23:09.680Z,4.32
2018-03-15T17:24:09.610Z,4.39
2018-03-15T17:26:02.419Z,4.31
2018-03-15T17:27:02.330Z,4.34
2018-03-15T17:28:55.089Z,4.28
2018-03-15T17:29:55.017Z,4.31
2018-03-15T17:31:47.789Z,4.32
2018-03-15T17:32:47.705Z,4.24
2018-03-15T17:34:40.522Z,4.24
2018-03-15T17:35:40.447Z,4.18
2018-03-15T17:37:33.222Z,4.24
2018-03-15T17:38:33.136Z,4.25
2018-03-15T17:40:25.909Z,4.21
2018-03-15T17:41:25.835Z,4.24
2018-03-15T17:43:18.577Z,4.07
2018-03-15T17:44:18.513Z,4.10
2018-03-15T17:46:11.275Z,4.07
2018-03-15T17:47:11.198Z,4.08
2018-03-15T17:49:03.951Z,4.07
2018-03-15T17:50:03.885Z,3.98
2018-03-15T17:51:56.644Z,3.92
2018-03-15T17:52:56.560Z,3.95
2018-03-15T17:54:49.318Z,3.86
2018-03-15T17:55:49.245Z,3.84
2018-03-15T17:57:42.012Z,3.86
2018-03-15T17:58:41.928Z,3.88
2018-03-15T18:00:34.884Z,3.86
2018-03-15T18:01:34.816Z,3.92
2018-03-15T18:03:27.582Z,3.82
2018-03-15T18:04:27.500Z,3.93
2018-03-15T18:06:20.248Z,3.75
2018-03-15T18:07:20.268Z,3.88
2018-03-15T18:09:12.942Z,3.89
2018-03-15T18:10:12.860Z,3.78
2018-03-15T18:12:05.624Z,3.80
2018-03-15T18:13:05.551Z,3.78
2018-03-15T18:14:58.304Z,3.86
2018-03-15T18:15:58.261Z,3.78
2018-03-15T18:17:50.990Z,3.81
2018-03-15T18:18:50.911Z,3.84
2018-03-15T18:20:43.676Z,3.80
2018-03-15T18:21:43.599Z,3.78
2018-03-15T18:23:36.353Z,3.84
2018-03-15T18:24:36.277Z,3.75
2018-03-15T18:26:29.051Z,3.84
2018-03-15T18:27:29.030Z,3.78
2018-03-15T18:29:21.746Z,3.78
2018-03-15T18:30:21.662Z,3.75
2018-03-15T18:32:14.548Z,3.74
2018-03-15T18:33:14.449Z,3.71
2018-03-15T18:35:07.236Z,3.77
2018-03-15T18:36:07.137Z,3.77
2018-03-15T18:37:59.938Z,3.64
2018-03-15T18:38:59.834Z,3.75
2018-03-15T18:40:52.589Z,3.77
2018-03-15T18:41:52.520Z,3.59
2018-03-15T18:43:45.303Z,3.75
2018-03-15T18:44:45.213Z,3.57
2018-03-15T18:46:37.963Z,3.67
2018-03-15T18:47:37.907Z,3.68
2018-03-15T18:49:30.653Z,3.71
2018-03-15T18:50:30.576Z,3.70
2018-03-15T18:52:23.403Z,3.68
2018-03-15T18:53:23.277Z,3.74
2018-03-15T18:55:16.093Z,3.67
2018-03-15T18:56:16.030Z,3.63
2018-03-15T18:58:08.791Z,3.67
2018-03-15T18:59:08.744Z,3.60
2018-03-15T19:01:01.476Z,3.60
2018-03-15T19:02:01.396Z,3.67
2018-03-15T19:03:54.173Z,3.56
2018-03-15T19:04:54.085Z,3.64
2018-03-15T19:06:46.848Z,3.56
2018-03-15T19:07:46.805Z,3.50
2018-03-15T19:09:39.571Z,3.54